Time;durP1;ratioP1;P1;durP2;ratioP2;P2;SDS_P1;SDS_P2;PMS_P1;PMS_P2;Temp;Humidity;BMP_temperature;BMP_pressure;BME280_temperature;BME280_humidity;BME280_pressure;Samples;Min_cycle;Max_cycle;Signal;HPM_P1;HPM_P2
2022/11/20 00:10:08;;;;;;;8.82;5.78;;;;;;;-144.40;100.00;60209.53;4876590;29;20049;-96
2022/11/20 00:12:34;;;;;;;16.42;7.43;;;;;;;-144.40;100.00;60209.53;4882682;29;20097;-96
2022/11/20 00:15:00;;;;;;;12.40;6.05;;;;;;;-144.40;100.00;60209.53;4881901;29;20037;-96
2022/11/20 00:17:25;;;;;;;15.23;5.80;;;;;;;-144.40;100.00;60209.53;4864777;29;20017;-96
2022/11/20 00:19:51;;;;;;;11.98;6.18;;;;;;;-144.40;100.00;60209.53;4862160;29;20042;-96
2022/11/20 00:22:17;;;;;;;13.55;6.13;;;;;;;-144.40;100.00;60209.53;4876588;29;20037;-96
2022/11/20 00:24:42;;;;;;;9.32;5.85;;;;;;;-144.40;100.00;60209.53;4862134;29;20030;-96
2022/11/20 00:27:08;;;;;;;8.60;5.63;;;;;;;-144.40;100.00;60209.53;4864399;29;20026;-96
2022/11/20 00:29:34;;;;;;;13.57;5.82;;;;;;;-144.40;100.00;60209.53;4865616;29;20053;-96
2022/11/20 00:32:00;;;;;;;15.30;5.60;;;;;;;-144.40;100.00;60209.53;4880942;29;20066;-95
2022/11/20 00:34:26;;;;;;;10.15;5.25;;;;;;;-144.40;100.00;60209.53;4880174;29;20029;-95
2022/11/20 00:36:52;;;;;;;10.63;5.15;;;;;;;-144.40;100.00;60209.53;4865308;29;20037;-96
2022/11/20 00:39:23;;;;;;;11.63;5.32;;;;;;;-144.40;100.00;60209.53;4867122;29;20030;-96
2022/11/20 00:41:51;;;;;;;13.23;5.03;;;;;;;-144.40;100.00;60209.53;4866713;29;20053;-96
2022/11/20 00:44:16;;;;;;;9.85;5.22;;;;;;;-144.40;100.00;60209.53;4867511;29;20034;-96
2022/11/20 00:46:42;;;;;;;13.50;5.20;;;;;;;-144.40;100.00;60209.53;4882084;29;20044;-96
2022/11/20 00:49:11;;;;;;;11.75;4.95;;;;;;;-144.40;100.00;60209.53;4865739;29;20129;-96
2022/11/20 00:51:37;;;;;;;13.55;4.60;;;;;;;-144.40;100.00;60209.53;4861655;29;20014;-96
2022/11/20 00:54:02;;;;;;;10.25;4.90;;;;;;;-144.40;100.00;60209.53;4857642;29;20038;-96
2022/11/20 00:56:28;;;;;;;8.52;4.70;;;;;;;-144.40;100.00;60209.53;4860143;29;20030;-96
2022/11/20 00:58:54;;;;;;;10.43;6.25;;;;;;;-144.40;100.00;60209.53;4857892;29;20438;-96
2022/11/20 01:01:29;;;;;;;11.32;4.95;;;;;;;-144.40;100.00;60209.53;4858717;29;20034;-96
2022/11/20 01:04:05;;;;;;;9.63;4.95;;;;;;;-144.40;100.00;60209.53;4857756;29;20125;-96
2022/11/20 01:06:40;;;;;;;12.07;5.75;;;;;;;-144.40;100.00;60209.53;4870656;29;20086;-96
2022/11/20 01:09:10;;;;;;;10.20;4.70;;;;;;;-144.40;100.00;60209.53;4854837;29;20102;-96
2022/11/20 01:11:40;;;;;;;6.93;4.57;;;;;;;-144.40;100.00;60209.53;4852817;29;20075;-96
2022/11/20 01:14:09;;;;;;;5.72;4.15;;;;;;;-144.40;100.00;60209.53;4865605;29;20042;-96
2022/11/20 01:16:40;;;;;;;9.55;4.80;;;;;;;-144.40;100.00;60209.53;4848324;29;20244;-94
2022/11/20 01:19:10;;;;;;;10.35;4.95;;;;;;;-144.40;100.00;60209.53;4846845;29;20041;-94
2022/11/20 01:21:38;;;;;;;7.47;4.95;;;;;;;-144.40;100.00;60209.53;4847486;29;20034;-96
2022/11/20 01:24:05;;;;;;;8.32;4.15;;;;;;;-144.40;100.00;60209.53;4849600;29;20026;-95
2022/11/20 01:26:33;;;;;;;10.85;4.95;;;;;;;-144.40;100.00;60209.53;4845966;29;20046;-93
2022/11/20 01:29:00;;;;;;;11.95;4.38;;;;;;;-144.40;100.00;60209.53;4846119;29;20038;-95
2022/11/20 01:31:28;;;;;;;5.85;4.20;;;;;;;-144.40;100.00;60209.53;4844333;29;20089;-95
2022/11/20 01:33:56;;;;;;;5.65;4.10;;;;;;;-144.40;100.00;60209.53;4845427;29;20034;-95
2022/11/20 01:36:25;;;;;;;8.93;4.68;;;;;;;-144.40;100.00;60209.53;4844659;29;20038;-94
2022/11/20 01:38:55;;;;;;;6.85;4.45;;;;;;;-144.40;100.00;60209.53;4844739;29;20511;-96
2022/11/20 01:44:06;;;;;;;10.52;4.75;;;;;;;-144.40;100.00;60209.53;4846108;29;20041;-96
2022/11/20 01:46:38;;;;;;;7.30;4.40;;;;;;;-144.40;100.00;60209.53;4845229;29;20033;-95
2022/11/20 01:49:06;;;;;;;9.65;4.05;;;;;;;-144.40;100.00;60209.53;4845703;29;20030;-95
2022/11/20 01:51:47;;;;;;;4.95;3.80;;;;;;;-144.40;100.00;60209.53;4846915;29;20033;-96
2022/11/20 01:54:19;;;;;;;6.75;3.95;;;;;;;-144.40;100.00;60209.53;4844119;29;20041;-95
2022/11/20 01:56:48;;;;;;;6.70;3.80;;;;;;;-144.40;100.00;60209.53;4845779;29;20038;-96
2022/11/20 01:59:17;;;;;;;6.82;3.60;;;;;;;-144.40;100.00;60209.53;4845426;29;20540;-96
2022/11/20 02:01:43;;;;;;;9.15;4.40;;;;;;;-144.40;100.00;60209.53;4845140;29;20030;-95
2022/11/20 02:04:10;;;;;;;7.15;3.80;;;;;;;-144.40;100.00;60209.53;4860476;29;20094;-96
2022/11/20 02:06:43;;;;;;;6.25;3.30;;;;;;;-144.40;100.00;60209.53;4845107;29;20026;-96
2022/11/20 02:09:09;;;;;;;7.30;3.30;;;;;;;-144.40;100.00;60209.53;4845722;29;20030;-96
2022/11/20 02:11:34;;;;;;;5.10;3.35;;;;;;;-144.40;100.00;60209.53;4844698;29;20034;-96
2022/11/20 02:14:00;;;;;;;3.65;3.00;;;;;;;-144.40;100.00;60209.53;4846646;29;20034;-96
2022/11/20 02:16:31;;;;;;;5.53;3.40;;;;;;;-144.40;100.00;60209.53;4845377;29;20090;-96
2022/11/20 02:19:00;;;;;;;6.68;4.00;;;;;;;-144.40;100.00;60209.53;4845547;29;20038;-95
2022/11/20 02:21:31;;;;;;;5.97;4.05;;;;;;;-144.40;100.00;60209.53;4846680;29;20026;-96
2022/11/20 02:24:00;;;;;;;7.65;3.65;;;;;;;-144.40;100.00;60209.53;4859135;29;20486;-96
2022/11/20 02:26:27;;;;;;;7.13;3.47;;;;;;;-144.40;100.00;60209.53;4860187;29;20512;-96
2022/11/20 02:28:53;;;;;;;8.13;3.70;;;;;;;-144.40;100.00;60209.53;4844925;29;20069;-95
2022/11/20 02:31:18;;;;;;;4.95;3.60;;;;;;;-144.40;100.00;60209.53;4846628;29;20045;-96
2022/11/20 02:33:44;;;;;;;5.30;4.07;;;;;;;-144.40;100.00;60209.53;4845916;29;20030;-95
2022/11/20 02:36:14;;;;;;;4.95;3.53;;;;;;;-144.40;100.00;60209.53;4844400;29;20041;-96
2022/11/20 02:38:39;;;;;;;4.15;3.70;;;;;;;-144.40;100.00;60209.53;4843884;29;20025;-96
2022/11/20 02:41:05;;;;;;;9.93;4.03;;;;;;;-144.40;100.00;60209.53;4845523;29;20030;-96
2022/11/20 02:43:31;;;;;;;7.20;3.53;;;;;;;-144.40;100.00;60209.53;4846660;29;20062;-96
2022/11/20 02:45:56;;;;;;;6.05;3.92;;;;;;;-144.40;100.00;60209.53;4846982;29;20835;-96
2022/11/20 02:48:22;;;;;;;5.55;3.30;;;;;;;-144.40;100.00;60209.53;4843998;29;20109;-96
2022/11/20 02:50:47;;;;;;;6.20;3.40;;;;;;;-144.40;100.00;60209.53;4845303;29;20496;-95
2022/11/20 02:53:13;;;;;;;5.38;3.92;;;;;;;-144.40;100.00;60209.53;4843475;29;20389;-96
2022/11/20 02:55:38;;;;;;;8.60;4.40;;;;;;;-144.40;100.00;60209.53;4845074;29;20486;-96
2022/11/20 02:58:04;;;;;;;3.47;2.92;;;;;;;-144.40;100.00;60209.53;4858990;29;20038;-96
2022/11/20 03:00:29;;;;;;;3.63;3.08;;;;;;;-144.40;100.00;60209.53;4844288;29;20040;-96
2022/11/20 03:02:55;;;;;;;4.75;3.58;;;;;;;-144.40;100.00;60209.53;4844653;29;20045;-96
2022/11/20 03:05:20;;;;;;;4.28;3.00;;;;;;;-144.40;100.00;60209.53;4843164;29;20026;-95
2022/11/20 03:07:46;;;;;;;4.32;2.90;;;;;;;-144.40;100.00;60209.53;4844089;29;20063;-95
2022/11/20 03:10:11;;;;;;;5.63;3.38;;;;;;;-144.40;100.00;60209.53;4845464;29;20037;-95
2022/11/20 03:12:37;;;;;;;3.88;2.80;;;;;;;-144.40;100.00;60209.53;4845473;29;20180;-96
2022/11/20 03:15:03;;;;;;;3.60;2.75;;;;;;;-144.40;100.00;60209.53;4845719;29;20101;-96
2022/11/20 03:17:29;;;;;;;4.30;2.67;;;;;;;-144.40;100.00;60209.53;4861745;29;20037;-96
2022/11/20 03:19:54;;;;;;;2.63;2.20;;;;;;;-144.40;100.00;60209.53;4843920;29;20447;-95
2022/11/20 03:22:20;;;;;;;2.90;2.20;;;;;;;-144.40;100.00;60209.53;4843495;29;20041;-95
2022/11/20 03:24:46;;;;;;;3.63;2.05;;;;;;;-144.40;100.00;60209.53;4843236;29;20034;-96
2022/11/20 03:27:11;;;;;;;2.58;1.88;;;;;;;-144.40;100.00;60209.53;4844536;29;20030;-96
2022/11/20 03:29:37;;;;;;;2.15;1.77;;;;;;;-144.40;100.00;60209.53;4847779;29;20366;-96
2022/11/20 03:32:02;;;;;;;1.38;1.25;;;;;;;-144.40;100.00;60209.53;4846467;29;20030;-96
2022/11/20 03:34:28;;;;;;;1.95;1.52;;;;;;;-144.40;100.00;60209.53;4845307;29;20030;-96
2022/11/20 03:36:54;;;;;;;1.40;1.20;;;;;;;-144.40;100.00;60209.53;4846145;29;20030;-95
2022/11/20 03:39:19;;;;;;;1.95;1.50;;;;;;;-144.40;100.00;60209.53;4847223;29;20065;-96
2022/11/20 03:41:45;;;;;;;2.03;1.20;;;;;;;-144.40;100.00;60209.53;4863913;29;20026;-96
2022/11/20 03:44:11;;;;;;;1.60;1.17;;;;;;;-144.40;100.00;60209.53;4845902;29;20037;-96
2022/11/20 03:46:37;;;;;;;2.05;1.10;;;;;;;-144.40;100.00;60209.53;4847389;29;20030;-96
2022/11/20 03:49:03;;;;;;;1.15;0.93;;;;;;;-144.40;100.00;60209.53;4861439;29;20030;-96
2022/11/20 03:51:31;;;;;;;1.23;0.90;;;;;;;-144.40;100.00;60209.53;4847412;29;20061;-96
2022/11/20 03:53:59;;;;;;;2.03;1.00;;;;;;;-144.40;100.00;60209.53;4848296;29;20513;-96
2022/11/20 03:56:30;;;;;;;2.47;1.08;;;;;;;-144.40;100.00;60209.53;4846733;29;20030;-96
2022/11/20 03:58:56;;;;;;;1.15;0.88;;;;;;;-144.40;100.00;60209.53;4847860;29;20076;-96
2022/11/20 04:01:25;;;;;;;2.03;1.00;;;;;;;-144.40;100.00;60209.53;4845754;29;20041;-96
2022/11/20 04:03:53;;;;;;;1.20;1.10;;;;;;;-144.40;100.00;60209.53;4846392;29;20035;-96
2022/11/20 04:06:29;;;;;;;1.08;0.77;;;;;;;-144.40;100.00;60209.53;4845027;29;20113;-96
2022/11/20 04:08:55;;;;;;;1.27;0.93;;;;;;;-144.40;100.00;60209.53;4845965;29;20022;-96
2022/11/20 04:11:24;;;;;;;1.20;1.10;;;;;;;-144.40;100.00;60209.53;4861746;29;20049;-96
2022/11/20 04:14:03;;;;;;;1.55;1.45;;;;;;;-144.40;100.00;60209.53;4860557;29;20120;-96
2022/11/20 04:16:30;;;;;;;2.42;1.77;;;;;;;-144.40;100.00;60209.53;4848917;29;20026;-96
2022/11/20 04:18:59;;;;;;;2.42;1.50;;;;;;;-144.40;100.00;60209.53;4851727;29;20034;-96
2022/11/20 04:21:26;;;;;;;1.90;1.50;;;;;;;-144.40;100.00;60209.53;4849973;29;20509;-96
2022/11/20 04:23:52;;;;;;;1.92;1.67;;;;;;;-144.40;100.00;60209.53;4851552;29;20064;-96
2022/11/20 04:26:18;;;;;;;1.55;1.45;;;;;;;-144.40;100.00;60209.53;4849219;29;20038;-96
2022/11/20 04:28:44;;;;;;;1.45;1.20;;;;;;;-144.40;100.00;60209.53;4851000;29;20029;-96
2022/11/20 04:31:13;;;;;;;1.55;1.25;;;;;;;-144.40;100.00;60209.53;4851171;29;20033;-96
2022/11/20 04:33:39;;;;;;;1.33;0.98;;;;;;;-144.40;100.00;60209.53;4849454;29;20033;-96
2022/11/20 04:36:07;;;;;;;1.90;1.17;;;;;;;-144.40;100.00;60209.53;4849151;29;20065;-96
2022/11/20 04:38:33;;;;;;;0.88;0.75;;;;;;;-144.40;100.00;60209.53;4848628;29;20030;-96
2022/11/20 04:41:00;;;;;;;1.67;0.63;;;;;;;-144.40;100.00;60209.53;4849430;29;20149;-96
2022/11/20 04:43:26;;;;;;;0.85;0.60;;;;;;;-144.40;100.00;60209.53;4849142;29;20030;-96
2022/11/20 04:45:56;;;;;;;2.30;0.45;;;;;;;-144.40;100.00;60209.53;4849710;29;20026;-95
2022/11/20 04:48:22;;;;;;;2.28;0.68;;;;;;;-144.40;100.00;60209.53;4849720;29;20029;-96
2022/11/20 04:50:47;;;;;;;0.95;0.57;;;;;;;-144.40;100.00;60209.53;4849176;29;20034;-96
2022/11/20 04:53:13;;;;;;;0.80;0.50;;;;;;;-144.40;100.00;60209.53;4867458;29;20040;-96
2022/11/20 04:55:39;;;;;;;1.00;0.45;;;;;;;-144.40;100.00;60209.53;4849188;29;20082;-95
2022/11/20 04:58:04;;;;;;;1.73;0.68;;;;;;;-144.40;100.00;60209.53;4864249;29;20120;-96
2022/11/20 05:00:30;;;;;;;0.52;0.40;;;;;;;-144.40;100.00;60209.53;4847066;29;20045;-96
2022/11/20 05:02:56;;;;;;;2.40;0.43;;;;;;;-144.40;100.00;60209.53;4837682;29;20035;-96
2022/11/20 05:05:21;;;;;;;2.20;0.60;;;;;;;-144.40;100.00;60209.53;4850530;29;20038;-95
2022/11/20 05:07:47;;;;;;;1.50;0.40;;;;;;;-144.40;100.00;60209.53;4848286;29;20090;-94
2022/11/20 05:10:12;;;;;;;3.05;0.75;;;;;;;-144.40;100.00;60209.53;4848600;29;20045;-96
2022/11/20 05:12:38;;;;;;;3.83;1.02;;;;;;;-144.40;100.00;60209.53;4846703;29;20041;-96
2022/11/20 05:15:04;;;;;;;1.50;0.60;;;;;;;-144.40;100.00;60209.53;4846403;29;20030;-96
2022/11/20 05:17:29;;;;;;;3.45;0.90;;;;;;;-144.40;100.00;60209.53;4847168;29;20533;-95
2022/11/20 05:19:55;;;;;;;1.83;0.80;;;;;;;-144.40;100.00;60209.53;4846314;29;20030;-96
2022/11/20 05:22:20;;;;;;;4.90;1.27;;;;;;;-144.40;100.00;60209.53;4848848;29;20485;-95
2022/11/20 05:24:46;;;;;;;3.60;1.05;;;;;;;-144.40;100.00;60209.53;4848617;29;20097;-95
2022/11/20 05:27:11;;;;;;;7.30;1.35;;;;;;;-144.40;100.00;60209.53;4850548;29;20037;-95
2022/11/20 05:29:37;;;;;;;5.22;1.88;;;;;;;-144.40;100.00;60209.53;4848617;29;20397;-95
2022/11/20 05:32:02;;;;;;;3.42;1.20;;;;;;;-144.40;100.00;60209.53;4851268;29;20041;-95
2022/11/20 05:34:28;;;;;;;4.00;1.60;;;;;;;-144.40;100.00;60209.53;4848397;29;20022;-96
2022/11/20 05:36:53;;;;;;;5.70;1.48;;;;;;;-144.40;100.00;60209.53;4850567;29;20034;-96
2022/11/20 05:39:19;;;;;;;4.97;1.42;;;;;;;-144.40;100.00;60209.53;4849964;29;20025;-96
2022/11/20 05:41:44;;;;;;;8.05;1.40;;;;;;;-144.40;100.00;60209.53;4849901;29;20405;-95
2022/11/20 05:44:11;;;;;;;3.95;1.42;;;;;;;-144.40;100.00;60209.53;4850341;29;20045;-96
2022/11/20 05:46:36;;;;;;;5.18;1.50;;;;;;;-144.40;100.00;60209.53;4849157;29;20018;-96
2022/11/20 05:49:02;;;;;;;5.07;1.75;;;;;;;-144.40;100.00;60209.53;4848258;29;20110;-95
2022/11/20 05:51:28;;;;;;;10.13;2.92;;;;;;;-144.40;100.00;60209.53;4848607;29;20030;-96
2022/11/20 05:53:56;;;;;;;6.78;2.40;;;;;;;-144.40;100.00;60209.53;4849382;29;20068;-96
2022/11/20 05:56:21;;;;;;;8.77;1.90;;;;;;;-144.40;100.00;60209.53;4850973;29;20045;-96
2022/11/20 05:58:48;;;;;;;13.10;2.45;;;;;;;-144.40;100.00;60209.53;4848097;29;20033;-96
2022/11/20 06:01:19;;;;;;;9.32;1.98;;;;;;;-144.40;100.00;60209.53;4847503;29;20097;-95
2022/11/20 06:03:47;;;;;;;8.38;1.80;;;;;;;-144.40;100.00;60209.53;4847749;29;20446;-96
2022/11/20 06:06:13;;;;;;;8.32;1.92;;;;;;;-144.40;100.00;60209.53;4849572;29;20046;-96
2022/11/20 06:08:39;;;;;;;6.15;1.92;;;;;;;-144.40;100.00;60209.53;4847621;29;20029;-96
2022/11/20 06:11:06;;;;;;;14.25;2.30;;;;;;;-144.40;100.00;60209.53;4848365;29;20069;-96
2022/11/20 06:13:32;;;;;;;12.27;2.45;;;;;;;-144.40;100.00;60209.53;4844961;29;20105;-96
2022/11/20 06:15:57;;;;;;;17.30;3.42;;;;;;;-144.40;100.00;60209.53;4847331;29;20069;-96
2022/11/20 06:18:25;;;;;;;12.32;3.10;;;;;;;-144.40;100.00;60209.53;4848973;29;20093;-96
2022/11/20 06:21:02;;;;;;;15.00;3.00;;;;;;;-144.40;100.00;60209.53;4849261;29;20038;-95
2022/11/20 06:23:30;;;;;;;14.75;2.47;;;;;;;-144.40;100.00;60209.53;4850278;29;20116;-96
2022/11/20 06:25:55;;;;;;;13.77;2.85;;;;;;;-144.40;100.00;60209.53;4847221;29;20389;-95
2022/11/20 06:28:21;;;;;;;13.73;2.28;;;;;;;-144.40;100.00;60209.53;4847305;29;20037;-95
2022/11/20 06:30:47;;;;;;;20.60;3.10;;;;;;;-144.40;100.00;60209.53;4847960;29;20022;-95
2022/11/20 06:33:12;;;;;;;26.73;3.75;;;;;;;-144.40;100.00;60209.53;4850758;29;20030;-96
2022/11/20 06:35:38;;;;;;;23.95;2.88;;;;;;;-144.40;100.00;60209.53;4851286;29;20036;-95
2022/11/20 06:38:03;;;;;;;18.85;2.70;;;;;;;-144.40;100.00;60209.53;4850595;29;20022;-96
2022/11/20 06:40:29;;;;;;;17.60;3.30;;;;;;;-144.40;100.00;60209.53;4862816;29;20038;-95
2022/11/20 06:42:54;;;;;;;22.48;3.10;;;;;;;-144.40;100.00;60209.53;4848117;29;20166;-95
2022/11/20 06:45:21;;;;;;;13.65;3.50;;;;;;;-144.40;100.00;60209.53;4849254;29;20044;-95
2022/11/20 06:47:46;;;;;;;25.15;2.70;;;;;;;-144.40;100.00;60209.53;4848010;29;20034;-95
2022/11/20 06:50:12;;;;;;;17.60;3.20;;;;;;;-144.40;100.00;60209.53;4849367;29;20052;-96
2022/11/20 06:52:38;;;;;;;18.15;2.97;;;;;;;-144.40;100.00;60209.53;4846880;29;20042;-96
2022/11/20 06:55:04;;;;;;;29.70;3.90;;;;;;;-144.40;100.00;60209.53;4847234;29;20036;-96
2022/11/20 06:57:29;;;;;;;26.55;3.15;;;;;;;-144.40;100.00;60209.53;4846294;29;20425;-95
2022/11/20 06:59:55;;;;;;;23.67;3.35;;;;;;;-144.40;100.00;60209.53;4847218;29;20075;-96
2022/11/20 07:02:20;;;;;;;30.20;3.72;;;;;;;-144.40;100.00;60209.53;4847061;29;20170;-96
2022/11/20 07:04:46;;;;;;;35.75;4.38;;;;;;;-144.40;100.00;60209.53;4845193;29;20041;-95
2022/11/20 07:07:11;;;;;;;23.75;3.88;;;;;;;-144.40;100.00;60209.53;4846600;29;20034;-96
2022/11/20 07:09:36;;;;;;;15.77;3.08;;;;;;;-144.40;100.00;60209.53;4846654;29;20032;-96
2022/11/20 07:12:02;;;;;;;18.58;3.78;;;;;;;-144.40;100.00;60209.53;4847680;29;20061;-96
2022/11/20 07:14:28;;;;;;;25.50;3.30;;;;;;;-144.40;100.00;60209.53;4847845;29;20037;-95
2022/11/20 07:16:54;;;;;;;24.45;3.58;;;;;;;-144.40;100.00;60209.53;4847393;29;20026;-95
2022/11/20 07:19:19;;;;;;;18.60;2.75;;;;;;;-144.40;100.00;60209.53;4846773;29;20069;-96
2022/11/20 07:21:45;;;;;;;19.92;2.97;;;;;;;-144.40;100.00;60209.53;4846732;29;20026;-96
2022/11/20 07:24:10;;;;;;;19.02;3.40;;;;;;;-144.40;100.00;60209.53;4847698;29;20477;-95
2022/11/20 07:26:36;;;;;;;12.52;2.28;;;;;;;-144.40;100.00;60209.53;4846514;29;20094;-96
2022/11/20 07:29:01;;;;;;;19.33;2.95;;;;;;;-144.40;100.00;60209.53;4847121;29;20038;-96
2022/11/20 07:31:27;;;;;;;14.18;2.78;;;;;;;-144.40;100.00;60209.53;4848071;29;20082;-96
2022/11/20 07:33:52;;;;;;;20.25;3.47;;;;;;;-144.40;100.00;60209.53;4847371;29;20040;-96
2022/11/20 07:36:18;;;;;;;18.40;2.45;;;;;;;-144.40;100.00;60209.53;4847831;29;20117;-96
2022/11/20 07:38:43;;;;;;;13.15;2.40;;;;;;;-144.40;100.00;60209.53;4846434;29;20034;-96
2022/11/20 07:41:08;;;;;;;18.00;3.25;;;;;;;-144.40;100.00;60209.53;4847671;29;20034;-95
2022/11/20 07:43:34;;;;;;;14.15;2.28;;;;;;;-144.40;100.00;60209.53;4842951;29;20053;-96
2022/11/20 07:45:59;;;;;;;18.55;2.80;;;;;;;-144.40;100.00;60209.53;4843484;29;20059;-95
2022/11/20 07:48:25;;;;;;;23.88;3.50;;;;;;;-144.40;100.00;60209.53;4844053;29;20049;-96
2022/11/20 07:50:57;;;;;;;12.60;3.47;;;;;;;-144.40;100.00;60209.53;4846936;29;20034;-96
2022/11/20 07:53:23;;;;;;;17.75;3.13;;;;;;;-144.40;100.00;60209.53;4864281;29;20045;-95
2022/11/20 07:55:52;;;;;;;14.88;3.13;;;;;;;-144.40;100.00;60209.53;4847739;29;20045;-95
2022/11/20 07:58:18;;;;;;;21.02;3.67;;;;;;;-144.40;100.00;60209.53;4848589;29;20041;-95
2022/11/20 08:00:43;;;;;;;13.80;2.58;;;;;;;-144.40;100.00;60209.53;4847963;29;20030;-95
2022/11/20 08:03:08;;;;;;;14.23;2.63;;;;;;;-144.40;100.00;60209.53;4848191;29;20061;-96
2022/11/20 08:05:34;;;;;;;15.07;3.88;;;;;;;-144.40;100.00;60209.53;4848388;29;20041;-96
2022/11/20 08:08:00;;;;;;;20.15;2.88;;;;;;;-144.40;100.00;60209.53;4846268;29;20064;-96
2022/11/20 08:10:25;;;;;;;21.20;3.08;;;;;;;-144.40;100.00;60209.53;4860177;29;20493;-95
2022/11/20 08:15:38;;;;;;;13.82;3.20;;;;;;;-144.40;100.00;60209.53;4845725;29;20059;-94
2022/11/20 08:18:09;;;;;;;16.25;2.53;;;;;;;-144.40;100.00;60209.53;4843964;29;20036;-95
2022/11/20 08:20:35;;;;;;;15.05;2.00;;;;;;;-144.40;100.00;60209.53;4844235;29;20062;-94
2022/11/20 08:23:07;;;;;;;16.48;3.38;;;;;;;-144.40;100.00;60209.53;4841251;29;20029;-94
2022/11/20 08:25:34;;;;;;;23.02;3.45;;;;;;;-144.40;100.00;60209.53;4840038;29;20497;-95
2022/11/20 08:28:03;;;;;;;15.63;1.98;;;;;;;-144.40;100.00;60209.53;4842171;29;20076;-95
2022/11/20 08:30:29;;;;;;;30.40;3.80;;;;;;;-144.40;100.00;60209.53;4841317;29;20034;-95
2022/11/20 08:32:55;;;;;;;17.10;2.53;;;;;;;-144.40;100.00;60209.53;4842139;29;20558;-93
2022/11/20 08:35:21;;;;;;;16.00;2.65;;;;;;;-144.40;100.00;60209.53;4852934;29;20490;-95
2022/11/20 08:37:47;;;;;;;14.40;3.35;;;;;;;-144.40;100.00;60209.53;4844184;29;20034;-95
2022/11/20 08:40:13;;;;;;;21.65;3.13;;;;;;;-144.40;100.00;60209.53;4843965;29;20034;-96
2022/11/20 08:42:49;;;;;;;15.90;3.67;;;;;;;-144.40;100.00;60209.53;4844397;29;20032;-94
2022/11/20 08:45:15;;;;;;;16.75;4.75;;;;;;;-144.40;100.00;60209.53;4843929;29;20038;-94
2022/11/20 08:47:42;;;;;;;12.93;2.40;;;;;;;-144.40;100.00;60209.53;4843449;29;20102;-94
2022/11/20 08:50:11;;;;;;;20.73;2.35;;;;;;;-144.40;100.00;60209.53;4843659;29;20041;-95
2022/11/20 08:58:06;;;;;;;16.27;2.50;;;;;;;-144.40;100.00;60209.53;5875999;23;20024;-95
2022/11/20 09:00:33;;;;;;;16.63;2.50;;;;;;;-144.40;100.00;60209.53;4880493;29;20033;-93
2022/11/20 09:03:00;;;;;;;16.77;2.58;;;;;;;-144.40;100.00;60209.53;4880280;29;20096;-96
2022/11/20 09:05:26;;;;;;;20.55;3.10;;;;;;;-144.40;100.00;60209.53;4871592;29;20025;-96
2022/11/20 09:07:52;;;;;;;21.90;3.83;;;;;;;-144.40;100.00;60209.53;5594427;23;20016;-96
2022/11/20 09:10:22;;;;;;;23.45;3.42;;;;;;;-144.40;100.00;60209.53;4947580;23;20033;-96
2022/11/20 09:15:26;;;;;;;18.60;2.80;;;;;;;-144.40;100.00;60209.53;5248042;23;20053;-96
2022/11/20 09:17:55;;;;;;;24.17;3.72;;;;;;;-144.40;100.00;60209.53;4878341;29;20025;-95
2022/11/20 09:20:21;;;;;;;25.50;3.25;;;;;;;-144.40;100.00;60209.53;4879721;29;20081;-96
2022/11/20 09:27:58;;;;;;;28.75;4.60;;;;;;;-144.40;100.00;60209.53;5296119;23;20060;-94
2022/11/20 09:30:25;;;;;;;31.60;4.38;;;;;;;-144.40;100.00;60209.53;4864773;29;20036;-96
2022/11/20 09:32:50;;;;;;;22.77;3.35;;;;;;;-144.40;100.00;60209.53;4865515;29;20493;-96
2022/11/20 09:35:17;;;;;;;27.08;3.67;;;;;;;-144.40;100.00;60209.53;4855566;29;20044;-96
2022/11/20 09:37:43;;;;;;;32.38;4.90;;;;;;;-144.40;100.00;60209.53;4846583;29;20082;-96
2022/11/20 09:40:25;;;;;;;32.08;5.07;;;;;;;-144.40;100.00;60209.53;4863695;29;20047;-96
2022/11/20 09:43:12;;;;;;;20.90;4.60;;;;;;;-144.40;100.00;60209.53;4853615;29;20048;-96
2022/11/20 09:46:05;;;;;;;36.33;5.03;;;;;;;-144.40;100.00;60209.53;4849457;29;20018;-96
2022/11/20 09:48:56;;;;;;;29.98;4.75;;;;;;;-144.40;100.00;60209.53;4844307;29;20517;-96
2022/11/20 11:19:24;;;;;;;12.95;2.92;;;;;;;-144.40;100.00;60209.53;4864080;29;20417;-96
2022/11/20 11:21:53;;;;;;;18.15;3.55;;;;;;;-144.40;100.00;60209.53;4863487;29;20029;-96
2022/11/20 11:24:23;;;;;;;13.98;2.70;;;;;;;-144.40;100.00;60209.53;4863748;29;20117;-96
2022/11/20 11:27:12;;;;;;;13.63;2.55;;;;;;;-144.40;100.00;60209.53;4870161;29;20477;-95
2022/11/20 11:29:38;;;;;;;12.27;3.35;;;;;;;-144.40;100.00;60209.53;4867726;29;20064;-95
2022/11/20 11:32:13;;;;;;;16.50;2.78;;;;;;;-144.40;100.00;60209.53;4866557;29;20417;-94
2022/11/20 11:34:39;;;;;;;12.60;2.50;;;;;;;-144.40;100.00;60209.53;4881342;29;20031;-94
2022/11/20 11:37:21;;;;;;;9.82;2.10;;;;;;;-144.40;100.00;60209.53;4867984;29;20105;-94
2022/11/20 11:39:47;;;;;;;;;;;;;;;-144.40;100.00;60209.53;4866750;29;20033;-94
2022/11/20 11:42:20;;;;;;;13.02;3.08;;;;;;;-144.40;100.00;60209.53;4868229;29;19916;-93
2022/11/20 11:45:05;;;;;;;14.98;3.05;;;;;;;-144.40;100.00;60209.53;4867438;29;20113;-94
2022/11/20 11:47:43;;;;;;;17.77;3.30;;;;;;;-144.40;100.00;60209.53;4869489;29;20029;-94
2022/11/20 11:50:08;;;;;;;14.85;2.97;;;;;;;-144.40;100.00;60209.53;4886907;29;20033;-94
2022/11/20 11:52:50;;;;;;;15.65;2.70;;;;;;;-144.40;100.00;60209.53;4872618;29;20438;-93
2022/11/20 11:55:37;;;;;;;15.73;2.85;;;;;;;-144.40;100.00;60209.53;4888013;29;20485;-94
2022/11/20 11:58:21;;;;;;;15.18;3.22;;;;;;;-144.40;100.00;60209.53;4869949;29;20047;-94
2022/11/20 12:01:22;;;;;;;15.43;3.20;;;;;;;-144.40;100.00;60209.53;4870650;29;20030;-94
2022/11/20 12:04:02;;;;;;;15.82;4.15;;;;;;;-144.40;100.00;60209.53;4881485;29;20045;-94
2022/11/20 12:06:31;;;;;;;20.33;3.78;;;;;;;-144.40;100.00;60209.53;4868069;29;20030;-94
2022/11/20 12:09:04;;;;;;;15.10;2.75;;;;;;;-144.40;100.00;60209.53;4867274;29;20044;-93
2022/11/20 12:11:37;;;;;;;18.30;3.80;;;;;;;-144.40;100.00;60209.53;4867127;29;20033;-94
2022/11/20 12:14:09;;;;;;;20.50;3.58;;;;;;;-144.40;100.00;60209.53;4868820;29;20040;-93
2022/11/20 12:16:37;;;;;;;25.35;4.32;;;;;;;-144.40;100.00;60209.53;4870406;29;20029;-94
2022/11/20 12:19:08;;;;;;;20.58;3.60;;;;;;;-144.40;100.00;60209.53;4867644;29;20564;-94
2022/11/20 12:21:54;;;;;;;21.90;4.40;;;;;;;-144.40;100.00;60209.53;4870161;29;20481;-93
2022/11/20 12:24:38;;;;;;;15.75;2.50;;;;;;;-144.40;100.00;60209.53;4884317;29;20075;-93
2022/11/20 12:27:39;;;;;;;24.38;3.33;;;;;;;-144.40;100.00;60209.53;4869751;29;20029;-93
2022/11/20 12:30:16;;;;;;;23.05;3.40;;;;;;;-144.40;100.00;60209.53;4869438;29;20025;-93
2022/11/20 12:32:53;;;;;;;17.10;3.33;;;;;;;-144.40;100.00;60209.53;4867119;29;20109;-93
2022/11/20 12:35:56;;;;;;;20.65;3.45;;;;;;;-144.40;100.00;60209.53;4880499;29;20037;-94
2022/11/20 12:38:52;;;;;;;12.77;1.83;;;;;;;-144.40;100.00;60209.53;4863642;29;20476;-91
2022/11/20 12:45:12;;;;;;;7.65;1.25;;;;;;;-144.40;100.00;60209.53;4862987;29;20097;-93
2022/11/20 12:48:05;;;;;;;10.65;1.48;;;;;;;-144.40;100.00;60209.53;4877176;29;20029;-93
2022/11/20 12:50:49;;;;;;;9.75;2.67;;;;;;;-144.40;100.00;60209.53;4861476;29;20056;-92
2022/11/20 12:54:01;;;;;;;10.45;1.38;;;;;;;-144.40;100.00;60209.53;4877897;29;20087;-93
2022/11/20 12:57:04;;;;;;;17.00;2.10;;;;;;;-144.40;100.00;60209.53;4862110;29;20034;-92
2022/11/20 13:00:03;;;;;;;13.48;2.15;;;;;;;-144.40;100.00;60209.53;4876718;29;20038;-92
2022/11/20 13:02:59;;;;;;;12.93;2.13;;;;;;;-144.40;100.00;60209.53;4860917;29;20215;-93
2022/11/20 13:05:37;;;;;;;22.92;2.03;;;;;;;-144.40;100.00;60209.53;4862320;29;20141;-93
2022/11/20 13:08:08;;;;;;;14.55;2.05;;;;;;;-144.40;100.00;60209.53;4861314;29;20040;-93
2022/11/20 13:10:59;;;;;;;13.20;2.10;;;;;;;-144.40;100.00;60209.53;4862187;29;20056;-92
2022/11/20 13:13:25;;;;;;;10.30;1.45;;;;;;;-144.40;100.00;60209.53;4861253;29;20056;-94